createdAt,value
2023-04-26T00:02:00.921Z,3.97
2023-04-26T00:04:29.735Z,3.63
2023-04-26T00:06:57.154Z,3.90
2023-04-26T00:09:28.813Z,3.85
2023-04-26T00:11:55.771Z,3.84
2023-04-26T00:14:22.787Z,3.85
2023-04-26T00:16:50.135Z,3.82
2023-04-26T00:19:20.122Z,3.81
2023-04-26T00:21:46.867Z,3.80
2023-04-26T00:24:13.710Z,3.69
2023-04-26T00:26:43.022Z,3.69
2023-04-26T00:29:14.624Z,3.71
2023-04-26T00:31:41.541Z,3.61
2023-04-26T00:34:08.465Z,3.67
2023-04-26T00:36:35.513Z,3.30
2023-04-26T00:39:02.979Z,3.62
2023-04-26T00:41:30.142Z,3.60
2023-04-26T00:43:59.372Z,3.58
2023-04-26T00:46:26.712Z,3.48
2023-04-26T00:48:56.266Z,3.50
2023-04-26T00:51:23.122Z,3.28
2023-04-26T00:53:50.040Z,3.40
2023-04-26T00:56:17.013Z,3.47
2023-04-26T00:58:43.912Z,3.24
2023-04-26T01:01:15.563Z,3.38
2023-04-26T01:03:47.079Z,3.37
2023-04-26T01:06:14.332Z,3.33
2023-04-26T01:08:43.948Z,3.17
2023-04-26T01:11:11.066Z,3.29
2023-04-26T01:13:38.839Z,3.30
2023-04-26T01:16:08.241Z,3.17
2023-04-26T01:18:36.132Z,3.20
2023-04-26T01:21:05.220Z,3.20
2023-04-26T01:23:32.332Z,3.24
2023-04-26T01:26:01.853Z,3.14
2023-04-26T01:28:28.854Z,3.20
2023-04-26T01:30:55.736Z,3.08
2023-04-26T01:33:22.727Z,3.17
2023-04-26T01:35:49.833Z,3.17
2023-04-26T01:38:21.976Z,3.14
2023-04-26T01:40:48.779Z,2.97
2023-04-26T01:43:16.692Z,3.02
2023-04-26T01:45:49.584Z,3.01
2023-04-26T01:48:16.852Z,2.99
2023-04-26T01:50:43.868Z,3.05
2023-04-26T01:53:10.689Z,2.89
2023-04-26T01:55:37.458Z,3.00
2023-04-26T01:58:04.323Z,2.99
2023-04-26T02:00:31.307Z,2.98
2023-04-26T02:03:01.139Z,2.96
2023-04-26T02:05:28.341Z,1.72
2023-04-26T02:07:55.355Z,2.90
2023-04-26T02:10:22.198Z,2.91
2023-04-26T02:12:49.166Z,2.84
2023-04-26T02:15:22.085Z,2.80
2023-04-26T02:17:49.906Z,2.83
2023-04-26T02:20:16.973Z,2.81
2023-04-26T02:22:43.918Z,2.80
2023-04-26T02:25:13.379Z,2.74
2023-04-26T02:27:40.308Z,2.72
2023-04-26T02:30:11.782Z,2.62
2023-04-26T02:32:38.867Z,2.63
2023-04-26T02:35:06.206Z,2.61
2023-04-26T02:37:34.291Z,2.64
2023-04-26T02:40:01.256Z,2.67
2023-04-26T02:42:28.262Z,2.60
2023-04-26T02:44:57.905Z,2.60
2023-04-26T02:47:27.335Z,2.31
2023-04-26T02:49:57.233Z,2.55
2023-04-26T02:52:24.036Z,2.47
2023-04-26T02:54:51.270Z,2.37
2023-04-26T02:57:21.089Z,2.48
2023-04-26T02:59:47.883Z,2.32
2023-04-26T03:02:15.216Z,2.50
2023-04-26T03:04:42.200Z,2.37
2023-04-26T03:07:09.838Z,2.27
2023-04-26T03:09:41.539Z,2.24
2023-04-26T03:12:09.622Z,2.37
2023-04-26T03:14:37.435Z,2.31
2023-04-26T03:17:07.965Z,2.19
2023-04-26T03:19:38.083Z,2.32
2023-04-26T03:22:05.130Z,2.34
2023-04-26T03:24:34.355Z,2.17
2023-04-26T03:27:01.332Z,2.35
2023-04-26T03:29:28.252Z,2.01
2023-04-26T03:31:55.692Z,2.31
2023-04-26T03:34:22.538Z,2.27
2023-04-26T03:36:49.232Z,2.21
2023-04-26T03:39:18.562Z,2.08
2023-04-26T03:41:45.457Z,2.28
2023-04-26T03:44:12.593Z,2.14
2023-04-26T03:46:39.345Z,2.15
2023-04-26T03:49:06.352Z,2.16
2023-04-26T03:51:33.224Z,2.19
2023-04-26T03:54:00.128Z,2.23
2023-04-26T03:56:27.059Z,2.09
2023-04-26T03:58:54.158Z,2.14
2023-04-26T04:01:21.320Z,1.93
2023-04-26T04:03:48.375Z,2.18
2023-04-26T04:06:16.945Z,1.39
2023-04-26T04:08:43.848Z,2.03
2023-04-26T04:11:12.854Z,2.17
2023-04-26T04:13:39.562Z,2.02
2023-04-26T04:16:07.218Z,2.08
2023-04-26T04:18:34.206Z,2.08
2023-04-26T04:21:01.028Z,2.14
2023-04-26T04:23:28.096Z,2.15
2023-04-26T04:25:54.879Z,2.10
2023-04-26T04:28:23.315Z,2.15
2023-04-26T04:30:50.314Z,2.10
2023-04-26T04:33:17.936Z,2.22
2023-04-26T04:35:45.273Z,2.07
2023-04-26T04:38:14.380Z,2.26
2023-04-26T04:40:45.943Z,2.15
2023-04-26T04:43:13.247Z,2.44
2023-04-26T04:45:39.898Z,2.58
2023-04-26T04:48:07.176Z,2.69
2023-04-26T04:50:37.268Z,2.61
2023-04-26T04:53:06.652Z,3.31
2023-04-26T04:55:36.783Z,3.91
2023-04-26T04:58:04.731Z,4.71
2023-04-26T05:00:31.488Z,5.98
2023-04-26T05:03:00.516Z,7.32
2023-04-26T05:05:27.483Z,8.03
2023-04-26T05:07:54.402Z,8.64
2023-04-26T05:10:23.769Z,9.41
2023-04-26T05:12:50.743Z,10.69
2023-04-26T05:15:17.968Z,11.42
2023-04-26T05:17:47.218Z,12.40
2023-04-26T05:20:15.046Z,13.23
2023-04-26T05:22:41.953Z,13.47
2023-04-26T05:25:09.601Z,13.14
2023-04-26T05:27:38.011Z,13.64
2023-04-26T05:30:08.781Z,13.72
2023-04-26T05:32:39.607Z,13.14
2023-04-26T05:35:09.243Z,12.56
2023-04-26T05:37:40.110Z,11.57
2023-04-26T05:40:09.025Z,10.53
2023-04-26T05:42:37.371Z,9.97
2023-04-26T05:45:04.746Z,9.34
2023-04-26T05:47:31.831Z,8.92
2023-04-26T05:50:01.292Z,8.55
2023-04-26T05:52:30.324Z,8.22
2023-04-26T05:54:57.086Z,7.81
2023-04-26T05:57:24.081Z,7.88
2023-04-26T05:59:50.991Z,9.05
2023-04-26T06:02:17.754Z,10.87
2023-04-26T06:04:46.956Z,13.42
2023-04-26T06:07:14.008Z,15.84
2023-04-26T06:09:41.011Z,17.42
2023-04-26T06:12:10.432Z,17.95
2023-04-26T06:14:39.489Z,18.83
2023-04-26T06:17:06.344Z,19.68
2023-04-26T06:19:33.254Z,20.22
2023-04-26T06:22:00.212Z,20.82
2023-04-26T06:24:27.051Z,20.07
2023-04-26T06:26:54.032Z,18.60
2023-04-26T06:29:21.938Z,17.34
2023-04-26T06:31:48.806Z,16.05
2023-04-26T06:34:17.921Z,14.55
2023-04-26T06:36:47.472Z,14.27
2023-04-26T06:39:14.269Z,14.03
2023-04-26T06:41:41.266Z,15.02
2023-04-26T06:44:10.717Z,15.62
2023-04-26T06:46:39.603Z,15.09
2023-04-26T06:49:09.026Z,14.15
2023-04-26T06:51:38.230Z,13.61
2023-04-26T06:54:07.658Z,13.24
2023-04-26T06:56:34.292Z,13.43
2023-04-26T06:59:05.594Z,13.05
2023-04-26T07:01:33.960Z,13.17
2023-04-26T07:04:04.952Z,12.73
2023-04-26T07:06:34.145Z,12.54
2023-04-26T07:09:02.878Z,12.52
2023-04-26T07:11:29.950Z,12.48
2023-04-26T07:13:59.319Z,13.09
2023-04-26T07:16:27.609Z,12.75
2023-04-26T07:18:58.084Z,12.56
2023-04-26T07:21:26.939Z,12.62
2023-04-26T07:23:57.237Z,14.06
2023-04-26T07:26:25.082Z,15.13
2023-04-26T07:28:52.769Z,14.79
2023-04-26T07:31:22.582Z,14.83
2023-04-26T07:33:51.787Z,15.67
2023-04-26T07:36:22.438Z,15.58
2023-04-26T07:38:50.724Z,14.41
2023-04-26T07:41:17.863Z,14.18
2023-04-26T07:43:46.933Z,14.44
2023-04-26T07:46:13.566Z,16.11
2023-04-26T07:48:42.586Z,16.50
2023-04-26T07:51:12.576Z,15.79
2023-04-26T07:53:40.621Z,14.72
2023-04-26T07:56:08.265Z,13.93
2023-04-26T07:58:36.300Z,13.63
2023-04-26T08:01:05.778Z,14.45
2023-04-26T08:03:33.315Z,14.93
2023-04-26T08:06:00.550Z,14.67
2023-04-26T08:08:27.519Z,14.84
2023-04-26T08:10:54.581Z,15.07
2023-04-26T08:13:23.975Z,14.14
2023-04-26T08:15:53.851Z,13.25
2023-04-26T08:18:20.618Z,12.70
2023-04-26T08:20:47.320Z,12.58
2023-04-26T08:23:14.363Z,12.55
2023-04-26T08:25:43.178Z,13.16
2023-04-26T08:28:09.787Z,14.31
2023-04-26T08:30:38.571Z,14.51
2023-04-26T08:33:07.467Z,13.96
2023-04-26T08:35:34.036Z,13.34
2023-04-26T08:38:01.072Z,12.84
2023-04-26T08:40:27.895Z,12.14
2023-04-26T08:42:54.579Z,12.07
2023-04-26T08:45:21.690Z,11.77
2023-04-26T08:47:58.864Z,11.71
2023-04-26T08:50:27.776Z,11.80
2023-04-26T08:52:54.469Z,12.13
2023-04-26T08:55:21.965Z,12.65
2023-04-26T08:57:50.122Z,12.92
2023-04-26T09:00:18.212Z,13.23
2023-04-26T09:02:51.760Z,14.26
2023-04-26T09:05:26.820Z,14.56
2023-04-26T09:08:06.786Z,14.17
2023-04-26T09:10:33.452Z,14.39
2023-04-26T09:13:00.191Z,14.37
2023-04-26T09:15:28.293Z,14.13
2023-04-26T09:17:57.228Z,13.84
2023-04-26T09:20:23.862Z,13.50
2023-04-26T09:22:54.859Z,13.16
2023-04-26T09:25:31.664Z,12.85
2023-04-26T09:28:02.088Z,12.39
2023-04-26T09:30:38.042Z,11.95
2023-04-26T09:33:06.692Z,11.79
2023-04-26T09:35:35.712Z,11.63
2023-04-26T09:38:13.851Z,11.32
2023-04-26T09:40:51.031Z,11.35
2023-04-26T09:43:18.766Z,11.42
2023-04-26T09:45:57.035Z,11.51
2023-04-26T09:48:26.060Z,11.93
2023-04-26T09:51:19.180Z,12.53
2023-04-26T09:53:47.714Z,13.04
2023-04-26T09:56:23.709Z,13.40
2023-04-26T09:58:58.188Z,13.47
2023-04-26T10:01:26.662Z,13.30
2023-04-26T10:03:53.595Z,13.11
2023-04-26T10:06:20.362Z,13.37
2023-04-26T10:08:47.022Z,13.30
2023-04-26T10:11:14.178Z,13.48
2023-04-26T10:13:41.910Z,13.32
2023-04-26T10:16:12.411Z,13.33
2023-04-26T10:18:39.341Z,13.04
2023-04-26T10:21:28.973Z,13.15
2023-04-26T10:23:59.406Z,12.98
2023-04-26T10:26:57.343Z,13.06
2023-04-26T10:29:25.757Z,12.92
2023-04-26T10:32:04.660Z,12.80
2023-04-26T10:34:35.341Z,12.71
2023-04-26T10:37:08.983Z,12.84
2023-04-26T10:39:36.883Z,12.85
2023-04-26T10:42:26.522Z,12.94
2023-04-26T10:44:57.545Z,13.12
2023-04-26T10:47:30.730Z,13.23
2023-04-26T10:50:15.587Z,13.42
2023-04-26T10:53:02.342Z,13.69
2023-04-26T10:55:39.741Z,13.59
2023-04-26T10:58:32.975Z,13.72
2023-04-26T11:01:16.458Z,13.99
2023-04-26T11:04:04.087Z,14.04
2023-04-26T11:06:51.210Z,14.19
2023-04-26T11:09:41.801Z,14.16
2023-04-26T11:12:13.754Z,14.35
2023-04-26T11:14:45.553Z,14.65
2023-04-26T11:17:15.527Z,14.83
2023-04-26T11:19:42.320Z,14.98
2023-04-26T11:22:11.407Z,14.66
2023-04-26T11:24:39.178Z,14.75
2023-04-26T11:27:10.276Z,14.99
2023-04-26T11:29:37.292Z,15.19
2023-04-26T11:32:04.365Z,15.20
2023-04-26T11:34:39.386Z,15.97
2023-04-26T11:37:08.635Z,16.48
2023-04-26T11:39:37.026Z,16.70
2023-04-26T11:42:11.960Z,17.57
2023-04-26T11:44:40.728Z,17.75
2023-04-26T11:47:10.376Z,17.81
2023-04-26T11:49:37.840Z,17.54
2023-04-26T11:52:06.073Z,17.58
2023-04-26T11:54:35.101Z,17.37
2023-04-26T11:57:14.721Z,17.36
2023-04-26T11:59:48.663Z,17.12
2023-04-26T12:02:15.329Z,16.77
2023-04-26T12:04:42.511Z,16.50
2023-04-26T12:07:09.688Z,16.28
2023-04-26T12:09:42.658Z,15.92
2023-04-26T12:12:09.426Z,15.60
2023-04-26T12:14:36.211Z,15.58
2023-04-26T12:17:04.489Z,15.17
2023-04-26T12:19:38.622Z,14.72
2023-04-26T12:22:07.102Z,14.28
2023-04-26T12:24:36.771Z,13.80
2023-04-26T12:27:07.430Z,13.65
2023-04-26T12:29:34.399Z,13.42
2023-04-26T12:32:04.393Z,13.19
2023-04-26T12:34:33.384Z,13.05
2023-04-26T12:36:59.964Z,12.92
2023-04-26T12:39:28.763Z,12.92
2023-04-26T12:41:57.689Z,12.90
2023-04-26T12:44:24.427Z,12.76
2023-04-26T12:46:51.447Z,12.75
2023-04-26T12:49:18.243Z,12.68
2023-04-26T12:51:44.814Z,12.77
2023-04-26T12:54:11.740Z,13.01
2023-04-26T12:56:44.369Z,13.29
2023-04-26T12:59:11.148Z,13.57
2023-04-26T13:01:37.773Z,13.76
2023-04-26T13:04:05.969Z,13.94
2023-04-26T13:06:33.301Z,13.90
2023-04-26T13:09:00.143Z,13.90
2023-04-26T13:11:29.064Z,13.74
2023-04-26T13:13:55.694Z,13.28
2023-04-26T13:16:24.609Z,13.20
2023-04-26T13:18:51.424Z,13.10
2023-04-26T13:21:20.286Z,12.92
2023-04-26T13:23:47.653Z,12.80
2023-04-26T13:26:15.163Z,13.19
2023-04-26T13:28:41.873Z,12.91
2023-04-26T13:31:08.503Z,13.10
2023-04-26T13:33:35.125Z,12.88
2023-04-26T13:36:01.775Z,12.75
2023-04-26T13:38:32.725Z,12.84
2023-04-26T13:40:59.570Z,12.58
2023-04-26T13:43:26.431Z,12.92
2023-04-26T13:45:55.767Z,13.24
2023-04-26T13:48:22.429Z,13.51
2023-04-26T13:50:49.040Z,14.08
2023-04-26T13:53:15.656Z,14.41
2023-04-26T13:55:42.505Z,14.58
2023-04-26T13:58:11.578Z,14.73
2023-04-26T14:00:40.658Z,14.81
2023-04-26T14:03:09.809Z,14.85
2023-04-26T14:05:36.674Z,15.05
2023-04-26T14:08:03.371Z,14.91
2023-04-26T14:10:32.955Z,14.77
2023-04-26T14:12:59.553Z,14.67
2023-04-26T14:15:30.958Z,14.54
2023-04-26T14:17:57.637Z,14.59
2023-04-26T14:20:24.268Z,14.45
2023-04-26T14:22:53.109Z,14.24
2023-04-26T14:25:20.110Z,14.14
2023-04-26T14:27:48.889Z,14.16
2023-04-26T14:30:15.697Z,14.40
2023-04-26T14:32:45.496Z,14.71
2023-04-26T14:35:14.623Z,15.06
2023-04-26T14:37:41.177Z,15.25
2023-04-26T14:40:08.533Z,15.26
2023-04-26T14:42:35.892Z,15.06
2023-04-26T14:45:04.940Z,14.83
2023-04-26T14:47:34.619Z,14.78
2023-04-26T14:50:01.437Z,14.45
2023-04-26T14:52:29.107Z,14.04
2023-04-26T14:54:55.762Z,14.10
2023-04-26T14:57:24.855Z,14.11
2023-04-26T14:59:51.440Z,14.13
2023-04-26T15:02:18.132Z,14.01
2023-04-26T15:04:47.918Z,13.92
2023-04-26T15:07:28.714Z,13.80
2023-04-26T15:10:01.799Z,13.64
2023-04-26T15:12:28.866Z,13.46
2023-04-26T15:14:56.275Z,13.19
2023-04-26T15:17:22.957Z,12.91
2023-04-26T15:19:51.909Z,12.79
2023-04-26T15:22:23.468Z,12.78
2023-04-26T15:24:51.147Z,12.78
2023-04-26T15:27:17.905Z,12.83
2023-04-26T15:29:44.641Z,12.87
2023-04-26T15:32:13.713Z,12.98
2023-04-26T15:34:43.516Z,13.16
2023-04-26T15:37:13.158Z,13.09
2023-04-26T15:39:39.797Z,13.09
2023-04-26T15:42:06.624Z,13.06
2023-04-26T15:44:33.474Z,13.08
2023-04-26T15:47:02.595Z,13.13
2023-04-26T15:49:31.823Z,12.88
2023-04-26T15:51:58.710Z,13.14
2023-04-26T15:54:26.508Z,13.08
2023-04-26T15:56:53.560Z,13.02
2023-04-26T15:59:20.338Z,13.23
2023-04-26T16:01:47.026Z,13.37
2023-04-26T16:04:14.251Z,13.21
2023-04-26T16:06:41.248Z,13.00
2023-04-26T16:09:23.947Z,12.83
2023-04-26T16:11:52.308Z,12.68
2023-04-26T16:14:18.979Z,12.58
2023-04-26T16:16:46.224Z,12.47
2023-04-26T16:19:13.022Z,12.24
2023-04-26T16:21:40.845Z,12.40
2023-04-26T16:24:11.625Z,12.03
2023-04-26T16:26:38.440Z,12.19
2023-04-26T16:29:07.637Z,12.19
2023-04-26T16:31:36.836Z,12.15
2023-04-26T16:34:03.457Z,12.11
2023-04-26T16:36:33.005Z,12.02
2023-04-26T16:39:02.070Z,12.05
2023-04-26T16:41:29.075Z,11.61
2023-04-26T16:43:56.094Z,11.83
2023-04-26T16:46:25.101Z,11.82
2023-04-26T16:48:52.081Z,11.44
2023-04-26T16:51:18.698Z,11.56
2023-04-26T16:53:47.329Z,11.57
2023-04-26T16:56:13.900Z,11.51
2023-04-26T16:58:40.477Z,11.44
2023-04-26T17:01:09.430Z,11.37
2023-04-26T17:03:38.567Z,11.32
2023-04-26T17:06:06.955Z,11.21
2023-04-26T17:08:33.678Z,11.30
2023-04-26T17:11:00.235Z,11.31
2023-04-26T17:13:29.466Z,11.21
2023-04-26T17:15:59.419Z,11.12
2023-04-26T17:18:26.166Z,11.09
2023-04-26T17:20:57.776Z,11.08
2023-04-26T17:23:24.739Z,11.01
2023-04-26T17:25:56.070Z,11.01
2023-04-26T17:28:22.676Z,10.91
2023-04-26T17:30:49.273Z,10.98
2023-04-26T17:33:15.908Z,10.97
2023-04-26T17:35:42.497Z,10.93
2023-04-26T17:38:09.152Z,10.78
2023-04-26T17:40:38.438Z,10.39
2023-04-26T17:43:05.017Z,10.66
2023-04-26T17:45:31.740Z,10.71
2023-04-26T17:47:58.491Z,10.66
2023-04-26T17:50:25.613Z,10.53
2023-04-26T17:52:52.230Z,10.59
2023-04-26T17:55:18.940Z,10.53
2023-04-26T17:57:45.529Z,10.52
2023-04-26T18:00:15.796Z,10.48
2023-04-26T18:02:43.197Z,10.38
2023-04-26T18:05:10.272Z,10.35
2023-04-26T18:07:36.978Z,10.25
2023-04-26T18:10:04.254Z,10.28
2023-04-26T18:12:32.012Z,10.23
2023-04-26T18:14:58.977Z,10.08
2023-04-26T18:17:25.813Z,10.13
2023-04-26T18:19:52.623Z,10.12
2023-04-26T18:22:21.553Z,10.07
2023-04-26T18:24:48.160Z,10.01
2023-04-26T18:27:15.124Z,9.97
2023-04-26T18:29:43.217Z,9.94
2023-04-26T18:32:10.949Z,9.89
2023-04-26T18:34:40.234Z,9.82
2023-04-26T18:37:07.860Z,9.77
2023-04-26T18:39:36.696Z,9.78
2023-04-26T18:42:03.932Z,9.71
2023-04-26T18:44:30.672Z,9.69
2023-04-26T18:46:57.300Z,9.60
2023-04-26T18:49:26.368Z,9.63
2023-04-26T18:51:57.343Z,9.45
2023-04-26T18:54:26.753Z,9.60
2023-04-26T18:56:54.112Z,9.56
2023-04-26T18:59:20.927Z,9.47
2023-04-26T19:01:49.310Z,9.52
2023-04-26T19:04:16.334Z,9.50
2023-04-26T19:06:43.029Z,9.39
2023-04-26T19:09:11.903Z,9.27
2023-04-26T19:11:38.841Z,9.22
2023-04-26T19:14:05.748Z,9.33
2023-04-26T19:16:32.433Z,9.32
2023-04-26T19:18:59.210Z,9.27
2023-04-26T19:21:28.046Z,9.23
2023-04-26T19:23:56.692Z,9.09
2023-04-26T19:26:23.315Z,9.24
2023-04-26T19:28:49.955Z,9.10
2023-04-26T19:31:19.872Z,9.14
2023-04-26T19:33:46.523Z,9.11
2023-04-26T19:36:13.148Z,9.11
2023-04-26T19:38:39.812Z,9.03
2023-04-26T19:41:06.433Z,8.97
2023-04-26T19:43:36.126Z,8.97
2023-04-26T19:46:11.571Z,8.93
2023-04-26T19:48:41.193Z,8.89
2023-04-26T19:51:07.746Z,8.83
2023-04-26T19:53:35.294Z,8.79
2023-04-26T19:56:04.469Z,8.73
2023-04-26T19:58:32.444Z,8.66
2023-04-26T20:00:59.040Z,8.61
2023-04-26T20:03:26.108Z,8.59
2023-04-26T20:05:55.134Z,8.35
2023-04-26T20:08:24.057Z,8.47
2023-04-26T20:10:51.150Z,8.45
2023-04-26T20:13:18.066Z,8.39
2023-04-26T20:15:45.323Z,8.34
2023-04-26T20:18:16.951Z,8.29
2023-04-26T20:20:44.407Z,8.19
2023-04-26T20:23:11.657Z,8.08
2023-04-26T20:25:41.151Z,8.11
2023-04-26T20:28:08.169Z,7.97
2023-04-26T20:30:35.440Z,7.74
2023-04-26T20:33:04.578Z,7.69
2023-04-26T20:35:31.604Z,7.74
2023-04-26T20:37:58.675Z,7.72
2023-04-26T20:40:26.449Z,7.62
2023-04-26T20:42:53.751Z,7.61
2023-04-26T20:45:20.804Z,7.55
2023-04-26T20:47:48.027Z,7.33
2023-04-26T20:50:15.186Z,7.26
2023-04-26T20:52:46.693Z,7.27
2023-04-26T20:55:14.042Z,7.32
2023-04-26T20:57:41.938Z,7.16
2023-04-26T21:00:10.793Z,7.18
2023-04-26T21:02:41.136Z,6.93
2023-04-26T21:05:10.829Z,7.09
2023-04-26T21:07:37.776Z,7.00
2023-04-26T21:10:07.846Z,6.93
2023-04-26T21:12:37.704Z,6.86
2023-04-26T21:15:05.394Z,6.85
2023-04-26T21:17:35.535Z,6.69
2023-04-26T21:20:05.317Z,6.81
2023-04-26T21:22:32.482Z,6.55
2023-04-26T21:25:00.023Z,6.76
2023-04-26T21:27:27.206Z,6.61
2023-04-26T21:30:05.167Z,6.47
2023-04-26T21:32:32.208Z,6.52
2023-04-26T21:34:59.489Z,6.56
2023-04-26T21:37:26.505Z,5.41
2023-04-26T21:39:57.277Z,6.40
2023-04-26T21:42:25.199Z,6.29
2023-04-26T21:44:52.191Z,6.41
2023-04-26T21:47:20.110Z,6.27
2023-04-26T21:49:47.049Z,6.34
2023-04-26T21:52:14.096Z,6.25
2023-04-26T21:54:41.307Z,6.28
2023-04-26T21:57:15.527Z,6.26
2023-04-26T21:59:44.907Z,6.17
2023-04-26T22:02:11.933Z,5.93
2023-04-26T22:04:40.140Z,6.16
2023-04-26T22:07:11.022Z,6.12
2023-04-26T22:09:38.184Z,6.09
2023-04-26T22:12:07.386Z,6.00
2023-04-26T22:14:34.416Z,5.99
2023-04-26T22:17:02.329Z,5.90
2023-04-26T22:19:31.672Z,5.71
2023-04-26T22:22:01.410Z,5.80
2023-04-26T22:24:28.436Z,5.92
2023-04-26T22:26:55.289Z,5.80
2023-04-26T22:29:22.201Z,5.83
2023-04-26T22:31:49.112Z,5.54
2023-04-26T22:34:23.736Z,5.14
2023-04-26T22:36:50.592Z,5.68
2023-04-26T22:39:17.452Z,5.65
2023-04-26T22:41:44.288Z,5.51
2023-04-26T22:44:11.501Z,5.53
2023-04-26T22:46:38.253Z,5.42
2023-04-26T22:49:05.164Z,5.51
2023-04-26T22:51:32.629Z,5.47
2023-04-26T22:54:01.060Z,5.45
2023-04-26T22:56:27.982Z,5.35
2023-04-26T22:58:54.735Z,4.55
2023-04-26T23:01:21.738Z,5.43
2023-04-26T23:03:48.725Z,5.41
2023-04-26T23:06:17.822Z,5.38
2023-04-26T23:08:47.407Z,5.34
2023-04-26T23:11:14.391Z,5.29
2023-04-26T23:13:41.438Z,5.10
2023-04-26T23:16:11.563Z,5.23
2023-04-26T23:18:38.622Z,5.18
2023-04-26T23:21:11.570Z,5.03
2023-04-26T23:23:38.725Z,5.10
2023-04-26T23:26:08.811Z,5.02
2023-04-26T23:28:35.701Z,5.10
2023-04-26T23:31:02.670Z,4.92
2023-04-26T23:33:30.005Z,4.98
2023-04-26T23:35:59.474Z,5.05
2023-04-26T23:38:26.624Z,5.03
2023-04-26T23:40:53.912Z,5.00
2023-04-26T23:43:20.921Z,4.82
2023-04-26T23:45:53.085Z,4.97
2023-04-26T23:48:22.595Z,4.88
2023-04-26T23:50:49.643Z,4.90
2023-04-26T23:53:19.132Z,4.77
2023-04-26T23:55:46.433Z,4.83
2023-04-26T23:58:13.522Z,4.71
